Check out our new PWSWeather beta!
PWSweather.com
Personal Weather Stations
Station Observations
KOMOKA
Komoka Village, Komoka, ON N0L IRO

Komoka VillageKomoka, ON N0L IRO

Lat: 42.9542444, Lon: -81.4348861

Elevation: 805

Station Type: Davis Vantage Pro 2

www.komokaweather.com

High Low Average
Temperature 48.0°F8.9°C 23.4°F-4.8°C 31.1°F-0.5°C
Dew Point 43.5°F6.4°C 16.9°F-8.4°C 25.3°F-3.7°C
Winds 15.0 mph 24.1 kmh Calm Calm 4.0 mph WSW6.4 kmh WSW
Wind Gusts 29.0 mph46.7 kmh 3.0 mph4.8 kmh 11.0 mph17.7 kmh
Humidity 84% 75% 79%
Pressure 30.29 in1025.7 mb 29.43 in996.6 mb -
Precipitation 0.09 in2.3 mm - -
Hour Temp Dew Point Humidity Winds Wind Gusts Pressure Precip Precip Rate Daily Precip Total
12:01 AM 48.0°F8.9°C 43.5°F6.4°C 84% 13.0 mph WSW20.9 kmh WSW 29.0 mph46.7 kmh 29.43 in996.6 mb 0.00 in0.0 mm 0.00 in0.0 mm 0.00 in0.0 mm
12:08 AM 47.5°F8.6°C 42.4°F5.8°C 83% 15.0 mph WSW24.1 kmh WSW 27.0 mph43.5 kmh 29.44 in997.0 mb 0.00 in0.0 mm 0.00 in0.0 mm 0.00 in0.0 mm
12:15 AM 46.8°F8.2°C 41.9°F5.5°C 83% 15.0 mph WSW24.1 kmh WSW 25.0 mph40.2 kmh 29.45 in997.3 mb 0.00 in0.0 mm 0.00 in0.0 mm 0.00 in0.0 mm
12:22 AM 46.0°F7.8°C 41.2°F5.1°C 83% 13.0 mph WSW20.9 kmh WSW 25.0 mph40.2 kmh 29.47 in998.0 mb 0.00 in0.0 mm 0.00 in0.0 mm 0.00 in0.0 mm
12:29 AM 44.1°F6.7°C 39.0°F3.9°C 82% 12.0 mph WSW19.3 kmh WSW 25.0 mph40.2 kmh 29.48 in998.3 mb 0.00 in0.0 mm 0.00 in0.0 mm 0.00 in0.0 mm
12:36 AM 42.8°F6.0°C 37.4°F3.0°C 81% 11.0 mph WSW17.7 kmh WSW 23.0 mph37.0 kmh 29.49 in998.6 mb 0.00 in0.0 mm 0.00 in0.0 mm 0.00 in0.0 mm
12:43 AM 41.7°F5.4°C 36.3°F2.4°C 81% 11.0 mph W17.7 kmh W 21.0 mph33.8 kmh 29.50 in999.0 mb 0.00 in0.0 mm 0.00 in0.0 mm 0.00 in0.0 mm
12:50 AM 40.6°F4.8°C 35.2°F1.8°C 81% 12.0 mph W19.3 kmh W 23.0 mph37.0 kmh 29.51 in999.3 mb 0.00 in0.0 mm 0.00 in0.0 mm 0.00 in0.0 mm
12:57 AM 40.3°F4.6°C 34.9°F1.6°C 81% 9.0 mph W14.5 kmh W 20.0 mph32.2 kmh 29.51 in999.3 mb 0.00 in0.0 mm 0.00 in0.0 mm 0.00 in0.0 mm
01:04 AM 39.7°F4.3°C 34.3°F1.3°C 81% 11.0 mph W17.7 kmh W 20.0 mph32.2 kmh 29.53 in1000.0 mb 0.00 in0.0 mm 0.00 in0.0 mm 0.00 in0.0 mm
01:11 AM 39.4°F4.1°C 34.0°F1.1°C 81% 9.0 mph W14.5 kmh W 21.0 mph33.8 kmh 29.54 in1000.3 mb 0.00 in0.0 mm 0.00 in0.0 mm 0.00 in0.0 mm
01:18 AM 39.0°F3.9°C 33.6°F0.9°C 81% 8.0 mph W12.9 kmh W 21.0 mph33.8 kmh 29.56 in1001.0 mb 0.00 in0.0 mm 0.00 in0.0 mm 0.00 in0.0 mm
01:25 AM 38.7°F3.7°C 33.6°F0.9°C 82% 8.0 mph W12.9 kmh W 19.0 mph30.6 kmh 29.57 in1001.4 mb 0.00 in0.0 mm 0.00 in0.0 mm 0.00 in0.0 mm
01:32 AM 38.5°F3.6°C 33.1°F0.6°C 81% 8.0 mph W12.9 kmh W 19.0 mph30.6 kmh 29.57 in1001.4 mb 0.00 in0.0 mm 0.00 in0.0 mm 0.00 in0.0 mm
01:39 AM 38.1°F3.4°C 33.3°F0.7°C 82% 7.0 mph W11.3 kmh W 17.0 mph27.4 kmh 29.57 in1001.4 mb 0.00 in0.0 mm 0.00 in0.0 mm 0.00 in0.0 mm
01:46 AM 38.1°F3.4°C 33.1°F0.6°C 82% 7.0 mph W11.3 kmh W 17.0 mph27.4 kmh 29.58 in1001.7 mb 0.00 in0.0 mm 0.00 in0.0 mm 0.00 in0.0 mm
01:53 AM 37.9°F3.3°C 32.9°F0.5°C 82% 7.0 mph W11.3 kmh W 17.0 mph27.4 kmh 29.59 in1002.0 mb 0.00 in0.0 mm 0.00 in0.0 mm 0.00 in0.0 mm
02:00 AM 37.9°F3.3°C 32.9°F0.5°C 82% 7.0 mph W11.3 kmh W 19.0 mph30.6 kmh 29.60 in1002.4 mb 0.00 in0.0 mm 0.00 in0.0 mm 0.00 in0.0 mm
02:07 AM 37.8°F3.2°C 32.7°F0.4°C 82% 8.0 mph W12.9 kmh W 17.0 mph27.4 kmh 29.61 in1002.7 mb 0.00 in0.0 mm 0.00 in0.0 mm 0.00 in0.0 mm
02:14 AM 37.8°F3.2°C 32.7°F0.4°C 82% 7.0 mph W11.3 kmh W 16.0 mph25.7 kmh 29.61 in1002.7 mb 0.00 in0.0 mm 0.00 in0.0 mm 0.00 in0.0 mm
02:21 AM 37.6°F3.1°C 32.5°F0.3°C 82% 9.0 mph W14.5 kmh W 21.0 mph33.8 kmh 29.63 in1003.4 mb 0.00 in0.0 mm 0.00 in0.0 mm 0.00 in0.0 mm
02:28 AM 37.4°F3.0°C 32.4°F0.2°C 82% 8.0 mph W12.9 kmh W 21.0 mph33.8 kmh 29.64 in1003.7 mb 0.00 in0.0 mm 0.00 in0.0 mm 0.00 in0.0 mm
02:35 AM 37.2°F2.9°C 31.8°F-0.1°C 81% 7.0 mph W11.3 kmh W 20.0 mph32.2 kmh 29.65 in1004.1 mb 0.00 in0.0 mm 0.00 in0.0 mm 0.00 in0.0 mm
02:42 AM 37.0°F2.8°C 31.6°F-0.2°C 81% 8.0 mph W12.9 kmh W 20.0 mph32.2 kmh 29.66 in1004.4 mb 0.00 in0.0 mm 0.00 in0.0 mm 0.00 in0.0 mm
02:49 AM 36.9°F2.7°C 31.8°F-0.1°C 82% 8.0 mph WNW12.9 kmh WNW 21.0 mph33.8 kmh 29.68 in1005.1 mb 0.00 in0.0 mm 0.00 in0.0 mm 0.00 in0.0 mm
02:56 AM 36.7°F2.6°C 31.3°F-0.4°C 81% 7.0 mph W11.3 kmh W 17.0 mph27.4 kmh 29.69 in1005.4 mb 0.00 in0.0 mm 0.00 in0.0 mm 0.00 in0.0 mm
03:03 AM 36.3°F2.4°C 31.1°F-0.5°C 81% 8.0 mph W12.9 kmh W 17.0 mph27.4 kmh 29.71 in1006.1 mb 0.00 in0.0 mm 0.00 in0.0 mm 0.00 in0.0 mm
03:10 AM 36.0°F2.2°C 30.7°F-0.7°C 81% 9.0 mph W14.5 kmh W 21.0 mph33.8 kmh 29.72 in1006.4 mb 0.00 in0.0 mm 0.00 in0.0 mm 0.00 in0.0 mm
03:17 AM 35.8°F2.1°C 30.4°F-0.9°C 81% 11.0 mph W17.7 kmh W 23.0 mph37.0 kmh 29.73 in1006.8 mb 0.00 in0.0 mm 0.00 in0.0 mm 0.00 in0.0 mm
03:24 AM 35.4°F1.9°C 30.2°F-1.0°C 81% 9.0 mph W14.5 kmh W 23.0 mph37.0 kmh 29.74 in1007.1 mb 0.00 in0.0 mm 0.00 in0.0 mm 0.00 in0.0 mm
03:31 AM 35.4°F1.9°C 30.2°F-1.0°C 81% 8.0 mph W12.9 kmh W 23.0 mph37.0 kmh 29.75 in1007.5 mb 0.00 in0.0 mm 0.00 in0.0 mm 0.00 in0.0 mm
03:38 AM 35.4°F1.9°C 30.2°F-1.0°C 81% 8.0 mph W12.9 kmh W 19.0 mph30.6 kmh 29.77 in1008.1 mb 0.00 in0.0 mm 0.00 in0.0 mm 0.00 in0.0 mm
03:45 AM 35.4°F1.9°C 30.2°F-1.0°C 81% 8.0 mph WNW12.9 kmh WNW 16.0 mph25.7 kmh 29.77 in1008.1 mb 0.00 in0.0 mm 0.00 in0.0 mm 0.00 in0.0 mm
03:52 AM 35.4°F1.9°C 30.2°F-1.0°C 81% 7.0 mph W11.3 kmh W 19.0 mph30.6 kmh 29.77 in1008.1 mb 0.00 in0.0 mm 0.00 in0.0 mm 0.00 in0.0 mm
03:59 AM 35.2°F1.8°C 30.4°F-0.9°C 82% 7.0 mph WNW11.3 kmh WNW 19.0 mph30.6 kmh 29.78 in1008.5 mb 0.00 in0.0 mm 0.00 in0.0 mm 0.00 in0.0 mm
04:06 AM 35.2°F1.8°C 30.2°F-1.0°C 82% 7.0 mph WNW11.3 kmh WNW 15.0 mph24.1 kmh 29.79 in1008.8 mb 0.00 in0.0 mm 0.00 in0.0 mm 0.00 in0.0 mm
04:13 AM 35.2°F1.8°C 30.2°F-1.0°C 82% 7.0 mph WNW11.3 kmh WNW 16.0 mph25.7 kmh 29.80 in1009.1 mb 0.00 in0.0 mm 0.00 in0.0 mm 0.00 in0.0 mm
04:20 AM 35.2°F1.8°C 30.2°F-1.0°C 82% 7.0 mph WNW11.3 kmh WNW 15.0 mph24.1 kmh 29.80 in1009.1 mb 0.00 in0.0 mm 0.00 in0.0 mm 0.00 in0.0 mm
04:27 AM 35.2°F1.8°C 30.2°F-1.0°C 82% 5.0 mph WNW8.0 kmh WNW 15.0 mph24.1 kmh 29.80 in1009.1 mb 0.00 in0.0 mm 0.00 in0.0 mm 0.00 in0.0 mm
04:34 AM 35.2°F1.8°C 30.2°F-1.0°C 82% 5.0 mph WNW8.0 kmh WNW 16.0 mph25.7 kmh 29.80 in1009.1 mb 0.00 in0.0 mm 0.00 in0.0 mm 0.00 in0.0 mm
04:41 AM 35.2°F1.8°C 30.2°F-1.0°C 82% 5.0 mph WNW8.0 kmh WNW 15.0 mph24.1 kmh 29.83 in1010.2 mb 0.00 in0.0 mm 0.00 in0.0 mm 0.00 in0.0 mm
04:48 AM 35.1°F1.7°C 30.2°F-1.0°C 82% 5.0 mph WNW8.0 kmh WNW 17.0 mph27.4 kmh 29.83 in1010.2 mb 0.00 in0.0 mm 0.00 in0.0 mm 0.00 in0.0 mm
04:55 AM 35.1°F1.7°C 30.2°F-1.0°C 82% 5.0 mph WNW8.0 kmh WNW 16.0 mph25.7 kmh 29.84 in1010.5 mb 0.00 in0.0 mm 0.00 in0.0 mm 0.00 in0.0 mm
05:02 AM 35.1°F1.7°C 30.2°F-1.0°C 82% 5.0 mph WNW8.0 kmh WNW 16.0 mph25.7 kmh 29.85 in1010.8 mb 0.00 in0.0 mm 0.00 in0.0 mm 0.00 in0.0 mm
05:09 AM 35.1°F1.7°C 30.2°F-1.0°C 82% 5.0 mph WNW8.0 kmh WNW 13.0 mph20.9 kmh 29.86 in1011.2 mb 0.00 in0.0 mm 0.00 in0.0 mm 0.00 in0.0 mm
05:16 AM 35.1°F1.7°C 30.2°F-1.0°C 82% 5.0 mph WNW8.0 kmh WNW 13.0 mph20.9 kmh 29.86 in1011.2 mb 0.00 in0.0 mm 0.00 in0.0 mm 0.00 in0.0 mm
05:23 AM 35.1°F1.7°C 30.2°F-1.0°C 82% 5.0 mph WNW8.0 kmh WNW 15.0 mph24.1 kmh 29.87 in1011.5 mb 0.00 in0.0 mm 0.00 in0.0 mm 0.00 in0.0 mm
05:30 AM 35.2°F1.8°C 30.2°F-1.0°C 82% 5.0 mph WNW8.0 kmh WNW 16.0 mph25.7 kmh 29.88 in1011.9 mb 0.00 in0.0 mm 0.00 in0.0 mm 0.00 in0.0 mm
05:37 AM 35.1°F1.7°C 30.2°F-1.0°C 82% 4.0 mph WNW6.4 kmh WNW 12.0 mph19.3 kmh 29.88 in1011.9 mb 0.00 in0.0 mm 0.00 in0.0 mm 0.00 in0.0 mm
05:44 AM 35.1°F1.7°C 30.0°F-1.1°C 82% 4.0 mph WNW6.4 kmh WNW 12.0 mph19.3 kmh 29.88 in1011.9 mb 0.00 in0.0 mm 0.00 in0.0 mm 0.00 in0.0 mm
05:51 AM 35.1°F1.7°C 30.0°F-1.1°C 82% 4.0 mph WNW6.4 kmh WNW 13.0 mph20.9 kmh 29.89 in1012.2 mb 0.00 in0.0 mm 0.00 in0.0 mm 0.00 in0.0 mm
05:58 AM 34.9°F1.6°C 30.0°F-1.1°C 82% 4.0 mph WNW6.4 kmh WNW 15.0 mph24.1 kmh 29.90 in1012.5 mb 0.00 in0.0 mm 0.00 in0.0 mm 0.00 in0.0 mm
06:05 AM 34.9°F1.6°C 30.0°F-1.1°C 82% 4.0 mph WNW6.4 kmh WNW 15.0 mph24.1 kmh 29.91 in1012.9 mb 0.00 in0.0 mm 0.00 in0.0 mm 0.00 in0.0 mm
06:12 AM 34.9°F1.6°C 29.8°F-1.2°C 82% 3.0 mph NW4.8 kmh NW 15.0 mph24.1 kmh 29.92 in1013.2 mb 0.00 in0.0 mm 0.00 in0.0 mm 0.00 in0.0 mm
06:19 AM 34.5°F1.4°C 29.7°F-1.3°C 82% 4.0 mph WNW6.4 kmh WNW 15.0 mph24.1 kmh 29.93 in1013.5 mb 0.00 in0.0 mm 0.00 in0.0 mm 0.00 in0.0 mm
06:26 AM 34.5°F1.4°C 29.3°F-1.5°C 81% 1.0 mph WNW1.6 kmh WNW 8.0 mph12.9 kmh 29.94 in1013.9 mb 0.00 in0.0 mm 0.00 in0.0 mm 0.00 in0.0 mm
06:33 AM 34.5°F1.4°C 29.3°F-1.5°C 81% 3.0 mph WNW4.8 kmh WNW 9.0 mph14.5 kmh 29.95 in1014.2 mb 0.00 in0.0 mm 0.00 in0.0 mm 0.00 in0.0 mm
06:40 AM 34.3°F1.3°C 29.1°F-1.6°C 81% 4.0 mph NW6.4 kmh NW 9.0 mph14.5 kmh 29.97 in1014.9 mb 0.00 in0.0 mm 0.00 in0.0 mm 0.00 in0.0 mm
06:47 AM 34.3°F1.3°C 29.1°F-1.6°C 81% 3.0 mph NW4.8 kmh NW 12.0 mph19.3 kmh 29.98 in1015.2 mb 0.00 in0.0 mm 0.00 in0.0 mm 0.00 in0.0 mm
06:54 AM 34.2°F1.2°C 28.9°F-1.7°C 81% 3.0 mph WNW4.8 kmh WNW 12.0 mph19.3 kmh 29.99 in1015.6 mb 0.00 in0.0 mm 0.00 in0.0 mm 0.00 in0.0 mm
07:01 AM 34.2°F1.2°C 28.9°F-1.7°C 81% 3.0 mph WNW4.8 kmh WNW 8.0 mph12.9 kmh 30.00 in1015.9 mb 0.00 in0.0 mm 0.00 in0.0 mm 0.00 in0.0 mm
07:08 AM 34.2°F1.2°C 28.9°F-1.7°C 81% 4.0 mph WNW6.4 kmh WNW 13.0 mph20.9 kmh 30.00 in1015.9 mb 0.00 in0.0 mm 0.00 in0.0 mm 0.00 in0.0 mm
07:15 AM 34.0°F1.1°C 28.8°F-1.8°C 81% 3.0 mph WNW4.8 kmh WNW 13.0 mph20.9 kmh 30.01 in1016.3 mb 0.00 in0.0 mm 0.00 in0.0 mm 0.00 in0.0 mm
07:22 AM 34.0°F1.1°C 28.8°F-1.8°C 81% 3.0 mph WNW4.8 kmh WNW 11.0 mph17.7 kmh 30.02 in1016.6 mb 0.00 in0.0 mm 0.00 in0.0 mm 0.00 in0.0 mm
07:29 AM 33.8°F1.0°C 28.6°F-1.9°C 81% 4.0 mph WNW6.4 kmh WNW 11.0 mph17.7 kmh 30.03 in1016.9 mb 0.00 in0.0 mm 0.00 in0.0 mm 0.00 in0.0 mm
07:36 AM 33.6°F0.9°C 28.4°F-2.0°C 81% 4.0 mph WNW6.4 kmh WNW 15.0 mph24.1 kmh 30.04 in1017.3 mb 0.00 in0.0 mm 0.00 in0.0 mm 0.00 in0.0 mm
07:43 AM 33.4°F0.8°C 28.2°F-2.1°C 81% 7.0 mph WNW11.3 kmh WNW 15.0 mph24.1 kmh 30.05 in1017.6 mb 0.00 in0.0 mm 0.00 in0.0 mm 0.00 in0.0 mm
07:50 AM 33.3°F0.7°C 28.0°F-2.2°C 81% 5.0 mph WNW8.0 kmh WNW 15.0 mph24.1 kmh 30.05 in1017.6 mb 0.00 in0.0 mm 0.00 in0.0 mm 0.00 in0.0 mm
07:57 AM 33.3°F0.7°C 28.0°F-2.2°C 81% 5.0 mph WNW8.0 kmh WNW 13.0 mph20.9 kmh 30.05 in1017.6 mb 0.00 in0.0 mm 0.00 in0.0 mm 0.00 in0.0 mm
08:04 AM 33.1°F0.6°C 27.9°F-2.3°C 81% 5.0 mph WNW8.0 kmh WNW 13.0 mph20.9 kmh 30.06 in1017.9 mb 0.00 in0.0 mm 0.00 in0.0 mm 0.00 in0.0 mm
08:11 AM 32.9°F0.5°C 27.7°F-2.4°C 81% 3.0 mph WNW4.8 kmh WNW 9.0 mph14.5 kmh 30.06 in1017.9 mb 0.00 in0.0 mm 0.00 in0.0 mm 0.00 in0.0 mm
08:18 AM 32.7°F0.4°C 27.7°F-2.4°C 81% 4.0 mph WNW6.4 kmh WNW 11.0 mph17.7 kmh 30.07 in1018.3 mb 0.00 in0.0 mm 0.00 in0.0 mm 0.00 in0.0 mm
08:25 AM 32.7°F0.4°C 27.5°F-2.5°C 81% 5.0 mph WNW8.0 kmh WNW 16.0 mph25.7 kmh 30.07 in1018.3 mb 0.00 in0.0 mm 0.00 in0.0 mm 0.00 in0.0 mm
08:32 AM 32.7°F0.4°C 27.5°F-2.5°C 81% 5.0 mph WNW8.0 kmh WNW 15.0 mph24.1 kmh 30.07 in1018.3 mb 0.00 in0.0 mm 0.00 in0.0 mm 0.00 in0.0 mm
08:39 AM 32.5°F0.3°C 27.5°F-2.5°C 81% 4.0 mph WNW6.4 kmh WNW 13.0 mph20.9 kmh 30.08 in1018.6 mb 0.00 in0.0 mm 0.00 in0.0 mm 0.00 in0.0 mm
08:46 AM 32.5°F0.3°C 27.5°F-2.5°C 81% 4.0 mph WNW6.4 kmh WNW 23.0 mph37.0 kmh 30.08 in1018.6 mb 0.00 in0.0 mm 0.00 in0.0 mm 0.00 in0.0 mm
08:53 AM 32.4°F0.2°C 27.1°F-2.7°C 81% 5.0 mph WNW8.0 kmh WNW 23.0 mph37.0 kmh 30.08 in1018.6 mb 0.00 in0.0 mm 0.00 in0.0 mm 0.00 in0.0 mm
09:00 AM 32.4°F0.2°C 27.1°F-2.7°C 81% 5.0 mph WNW8.0 kmh WNW 15.0 mph24.1 kmh 30.09 in1019.0 mb 0.00 in0.0 mm 0.00 in0.0 mm 0.00 in0.0 mm
09:07 AM 32.4°F0.2°C 27.1°F-2.7°C 81% 3.0 mph WNW4.8 kmh WNW 15.0 mph24.1 kmh 30.09 in1019.0 mb 0.00 in0.0 mm 0.00 in0.0 mm 0.00 in0.0 mm
09:14 AM 32.2°F0.1°C 27.0°F-2.8°C 81% 4.0 mph WNW6.4 kmh WNW 15.0 mph24.1 kmh 30.10 in1019.3 mb 0.09 in2.3 mm 0.77 in19.6 mm 0.09 in2.3 mm
09:21 AM 32.0°F0.0°C 26.8°F-2.9°C 81% 4.0 mph NW6.4 kmh NW 15.0 mph24.1 kmh 30.11 in1019.6 mb 0.09 in2.3 mm 0.00 in0.0 mm 0.09 in2.3 mm
09:28 AM 31.8°F-0.1°C 26.8°F-2.9°C 81% 3.0 mph NW4.8 kmh NW 12.0 mph19.3 kmh 30.11 in1019.6 mb 0.09 in2.3 mm 0.00 in0.0 mm 0.09 in2.3 mm
09:35 AM 31.8°F-0.1°C 26.8°F-2.9°C 81% 3.0 mph NW4.8 kmh NW 9.0 mph14.5 kmh 30.11 in1019.6 mb 0.09 in2.3 mm 0.00 in0.0 mm 0.09 in2.3 mm
09:42 AM 31.6°F-0.2°C 26.6°F-3.0°C 81% 4.0 mph NW6.4 kmh NW 13.0 mph20.9 kmh 30.11 in1019.6 mb 0.09 in2.3 mm 0.00 in0.0 mm 0.09 in2.3 mm
09:49 AM 31.6°F-0.2°C 26.6°F-3.0°C 81% 3.0 mph NW4.8 kmh NW 13.0 mph20.9 kmh 30.12 in1020.0 mb 0.09 in2.3 mm 0.00 in0.0 mm 0.09 in2.3 mm
09:56 AM 31.6°F-0.2°C 26.4°F-3.1°C 81% 3.0 mph NNW4.8 kmh NNW 7.0 mph11.3 kmh 30.12 in1020.0 mb 0.09 in2.3 mm 0.00 in0.0 mm 0.09 in2.3 mm
10:10 AM 31.4°F-0.3°C 26.2°F-3.2°C 81% 1.0 mph NW1.6 kmh NW 8.0 mph12.9 kmh 30.13 in1020.3 mb 0.00 in0.0 mm 0.00 in0.0 mm 0.09 in2.3 mm
10:20 AM 31.4°F-0.3°C 26.2°F-3.2°C 81% 3.0 mph WNW4.8 kmh WNW 11.0 mph17.7 kmh 30.14 in1020.7 mb 0.00 in0.0 mm 0.00 in0.0 mm 0.09 in2.3 mm
10:37 AM 31.1°F-0.5°C 25.7°F-3.5°C 80% 3.0 mph NW4.8 kmh NW 7.0 mph11.3 kmh 30.16 in1021.3 mb 0.00 in0.0 mm 0.00 in0.0 mm 0.09 in2.3 mm
10:44 AM 30.9°F-0.6°C 25.5°F-3.6°C 80% 1.0 mph NE1.6 kmh NE 7.0 mph11.3 kmh 30.16 in1021.3 mb 0.00 in0.0 mm 0.00 in0.0 mm 0.09 in2.3 mm
10:51 AM 30.9°F-0.6°C 25.5°F-3.6°C 80% 1.0 mph N1.6 kmh N 9.0 mph14.5 kmh 30.16 in1021.3 mb 0.00 in0.0 mm 0.00 in0.0 mm 0.09 in2.3 mm
10:58 AM 30.9°F-0.6°C 25.5°F-3.6°C 80% 1.0 mph NNW1.6 kmh NNW 7.0 mph11.3 kmh 30.17 in1021.7 mb 0.00 in0.0 mm 0.00 in0.0 mm 0.09 in2.3 mm
11:05 AM 30.9°F-0.6°C 25.5°F-3.6°C 80% 3.0 mph WNW4.8 kmh WNW 8.0 mph12.9 kmh 30.17 in1021.7 mb 0.00 in0.0 mm 0.00 in0.0 mm 0.09 in2.3 mm
11:12 AM 31.1°F-0.5°C 25.7°F-3.5°C 80% 3.0 mph WNW4.8 kmh WNW 8.0 mph12.9 kmh 30.17 in1021.7 mb 0.00 in0.0 mm 0.00 in0.0 mm 0.09 in2.3 mm
11:19 AM 30.9°F-0.6°C 25.2°F-3.8°C 79% 3.0 mph NW4.8 kmh NW 13.0 mph20.9 kmh 30.17 in1021.7 mb 0.00 in0.0 mm 0.00 in0.0 mm 0.09 in2.3 mm
11:26 AM 30.9°F-0.6°C 25.2°F-3.8°C 79% 3.0 mph WNW4.8 kmh WNW 8.0 mph12.9 kmh 30.16 in1021.3 mb 0.00 in0.0 mm 0.00 in0.0 mm 0.09 in2.3 mm
11:34 AM 30.9°F-0.6°C 25.2°F-3.8°C 79% 3.0 mph WNW4.8 kmh WNW 8.0 mph12.9 kmh 30.16 in1021.3 mb 0.00 in0.0 mm 0.00 in0.0 mm 0.09 in2.3 mm
11:40 AM 30.7°F-0.7°C 24.8°F-4.0°C 78% 3.0 mph WNW4.8 kmh WNW 12.0 mph19.3 kmh 30.16 in1021.3 mb 0.00 in0.0 mm 0.00 in0.0 mm 0.09 in2.3 mm
11:47 AM 31.3°F-0.4°C 25.5°F-3.6°C 79% 3.0 mph NW4.8 kmh NW 12.0 mph19.3 kmh 30.16 in1021.3 mb 0.00 in0.0 mm 0.00 in0.0 mm 0.09 in2.3 mm
11:54 AM 31.3°F-0.4°C 25.5°F-3.6°C 79% 3.0 mph WNW4.8 kmh WNW 9.0 mph14.5 kmh 30.17 in1021.7 mb 0.00 in0.0 mm 0.00 in0.0 mm 0.09 in2.3 mm
12:01 PM 31.1°F-0.5°C 25.3°F-3.7°C 79% 3.0 mph WNW4.8 kmh WNW 8.0 mph12.9 kmh 30.17 in1021.7 mb 0.00 in0.0 mm 0.00 in0.0 mm 0.09 in2.3 mm
12:08 PM 30.9°F-0.6°C 25.0°F-3.9°C 78% 3.0 mph WNW4.8 kmh WNW 11.0 mph17.7 kmh 30.17 in1021.7 mb 0.00 in0.0 mm 0.00 in0.0 mm 0.09 in2.3 mm
12:15 PM 30.7°F-0.7°C 24.8°F-4.0°C 78% 3.0 mph WNW4.8 kmh WNW 13.0 mph20.9 kmh 30.17 in1021.7 mb 0.00 in0.0 mm 0.00 in0.0 mm 0.09 in2.3 mm
12:22 PM 30.7°F-0.7°C 25.0°F-3.9°C 79% 3.0 mph WNW4.8 kmh WNW 5.0 mph8.0 kmh 30.17 in1021.7 mb 0.00 in0.0 mm 0.00 in0.0 mm 0.09 in2.3 mm
12:29 PM 30.6°F-0.8°C 24.8°F-4.0°C 79% 3.0 mph NW4.8 kmh NW 8.0 mph12.9 kmh 30.17 in1021.7 mb 0.00 in0.0 mm 0.00 in0.0 mm 0.09 in2.3 mm
12:37 PM 30.4°F-0.9°C 24.6°F-4.1°C 79% 3.0 mph NW4.8 kmh NW 9.0 mph14.5 kmh 30.18 in1022.0 mb 0.00 in0.0 mm 0.00 in0.0 mm 0.09 in2.3 mm
12:43 PM 30.4°F-0.9°C 24.6°F-4.1°C 79% 3.0 mph NW4.8 kmh NW 7.0 mph11.3 kmh 30.18 in1022.0 mb 0.00 in0.0 mm 0.00 in0.0 mm 0.09 in2.3 mm
12:50 PM 30.4°F-0.9°C 24.6°F-4.1°C 79% 1.0 mph NW1.6 kmh NW 8.0 mph12.9 kmh 30.18 in1022.0 mb 0.00 in0.0 mm 0.00 in0.0 mm 0.09 in2.3 mm
12:57 PM 30.4°F-0.9°C 24.6°F-4.1°C 79% 1.0 mph N1.6 kmh N 7.0 mph11.3 kmh 30.18 in1022.0 mb 0.00 in0.0 mm 0.00 in0.0 mm 0.09 in2.3 mm
01:04 PM 30.4°F-0.9°C 24.6°F-4.1°C 79% 3.0 mph NNW4.8 kmh NNW 5.0 mph8.0 kmh 30.17 in1021.7 mb 0.00 in0.0 mm 0.00 in0.0 mm 0.09 in2.3 mm
01:11 PM 30.4°F-0.9°C 24.6°F-4.1°C 79% 3.0 mph NW4.8 kmh NW 5.0 mph8.0 kmh 30.17 in1021.7 mb 0.00 in0.0 mm 0.00 in0.0 mm 0.09 in2.3 mm
01:18 PM 30.4°F-0.9°C 24.6°F-4.1°C 79% 1.0 mph WNW1.6 kmh WNW 9.0 mph14.5 kmh 30.17 in1021.7 mb 0.00 in0.0 mm 0.00 in0.0 mm 0.09 in2.3 mm
01:25 PM 30.4°F-0.9°C 24.6°F-4.1°C 79% 3.0 mph WNW4.8 kmh WNW 9.0 mph14.5 kmh 30.17 in1021.7 mb 0.00 in0.0 mm 0.00 in0.0 mm 0.09 in2.3 mm
01:32 PM 30.0°F-1.1°C 24.4°F-4.2°C 79% 1.0 mph WNW1.6 kmh WNW 5.0 mph8.0 kmh 30.18 in1022.0 mb 0.00 in0.0 mm 0.00 in0.0 mm 0.09 in2.3 mm
01:40 PM 30.2°F-1.0°C 24.4°F-4.2°C 79% 3.0 mph NW4.8 kmh NW 5.0 mph8.0 kmh 30.18 in1022.0 mb 0.00 in0.0 mm 0.00 in0.0 mm 0.09 in2.3 mm
01:46 PM 30.2°F-1.0°C 24.4°F-4.2°C 79% 3.0 mph WNW4.8 kmh WNW 12.0 mph19.3 kmh 30.19 in1022.4 mb 0.00 in0.0 mm 0.00 in0.0 mm 0.09 in2.3 mm
01:53 PM 30.2°F-1.0°C 24.1°F-4.4°C 78% 4.0 mph WNW6.4 kmh WNW 13.0 mph20.9 kmh 30.19 in1022.4 mb 0.00 in0.0 mm 0.00 in0.0 mm 0.09 in2.3 mm
02:00 PM 30.0°F-1.1°C 24.1°F-4.4°C 78% 3.0 mph WNW4.8 kmh WNW 7.0 mph11.3 kmh 30.19 in1022.4 mb 0.00 in0.0 mm 0.00 in0.0 mm 0.09 in2.3 mm
02:07 PM 30.0°F-1.1°C 24.1°F-4.4°C 78% 1.0 mph NW1.6 kmh NW 7.0 mph11.3 kmh 30.19 in1022.4 mb 0.00 in0.0 mm 0.00 in0.0 mm 0.09 in2.3 mm
02:14 PM 30.0°F-1.1°C 24.1°F-4.4°C 78% 1.0 mph N1.6 kmh N 8.0 mph12.9 kmh 30.19 in1022.4 mb 0.00 in0.0 mm 0.00 in0.0 mm 0.09 in2.3 mm
02:21 PM 30.0°F-1.1°C 23.9°F-4.5°C 78% 3.0 mph N4.8 kmh N 9.0 mph14.5 kmh 30.19 in1022.4 mb 0.00 in0.0 mm 0.00 in0.0 mm 0.09 in2.3 mm
02:28 PM 29.8°F-1.2°C 23.7°F-4.6°C 78% 3.0 mph NW4.8 kmh NW 16.0 mph25.7 kmh 30.19 in1022.4 mb 0.00 in0.0 mm 0.00 in0.0 mm 0.09 in2.3 mm
02:35 PM 29.7°F-1.3°C 23.7°F-4.6°C 78% 3.0 mph NW4.8 kmh NW 9.0 mph14.5 kmh 30.19 in1022.4 mb 0.00 in0.0 mm 0.00 in0.0 mm 0.09 in2.3 mm
02:43 PM 29.7°F-1.3°C 23.5°F-4.7°C 78% 3.0 mph NW4.8 kmh NW 8.0 mph12.9 kmh 30.20 in1022.7 mb 0.00 in0.0 mm 0.00 in0.0 mm 0.09 in2.3 mm
02:49 PM 29.5°F-1.4°C 23.2°F-4.9°C 77% 3.0 mph NW4.8 kmh NW 8.0 mph12.9 kmh 30.20 in1022.7 mb 0.00 in0.0 mm 0.00 in0.0 mm 0.09 in2.3 mm
02:56 PM 29.5°F-1.4°C 23.4°F-4.8°C 78% 1.0 mph NNW1.6 kmh NNW 7.0 mph11.3 kmh 30.20 in1022.7 mb 0.00 in0.0 mm 0.00 in0.0 mm 0.09 in2.3 mm
03:03 PM 29.3°F-1.5°C 23.4°F-4.8°C 78% 1.0 mph NNW1.6 kmh NNW 8.0 mph12.9 kmh 30.21 in1023.0 mb 0.00 in0.0 mm 0.00 in0.0 mm 0.09 in2.3 mm
03:10 PM 29.3°F-1.5°C 23.4°F-4.8°C 78% 1.0 mph WNW1.6 kmh WNW 8.0 mph12.9 kmh 30.21 in1023.0 mb 0.00 in0.0 mm 0.00 in0.0 mm 0.09 in2.3 mm
03:17 PM 29.1°F-1.6°C 23.2°F-4.9°C 78% 1.0 mph NW1.6 kmh NW 7.0 mph11.3 kmh 30.21 in1023.0 mb 0.00 in0.0 mm 0.00 in0.0 mm 0.09 in2.3 mm
03:24 PM 29.1°F-1.6°C 23.2°F-4.9°C 78% 3.0 mph NNW4.8 kmh NNW 8.0 mph12.9 kmh 30.22 in1023.4 mb 0.00 in0.0 mm 0.00 in0.0 mm 0.09 in2.3 mm
03:31 PM 28.9°F-1.7°C 22.6°F-5.2°C 77% 3.0 mph NNW4.8 kmh NNW 7.0 mph11.3 kmh 30.22 in1023.4 mb 0.00 in0.0 mm 0.00 in0.0 mm 0.09 in2.3 mm
03:38 PM 28.8°F-1.8°C 22.5°F-5.3°C 77% 3.0 mph N4.8 kmh N 7.0 mph11.3 kmh 30.23 in1023.7 mb 0.00 in0.0 mm 0.00 in0.0 mm 0.09 in2.3 mm
03:46 PM 28.8°F-1.8°C 22.5°F-5.3°C 77% 1.0 mph NW1.6 kmh NW 5.0 mph8.0 kmh 30.23 in1023.7 mb 0.00 in0.0 mm 0.00 in0.0 mm 0.09 in2.3 mm
03:52 PM 28.8°F-1.8°C 22.5°F-5.3°C 77% 1.0 mph WNW1.6 kmh WNW 7.0 mph11.3 kmh 30.23 in1023.7 mb 0.00 in0.0 mm 0.00 in0.0 mm 0.09 in2.3 mm
03:59 PM 28.8°F-1.8°C 22.5°F-5.3°C 77% 1.0 mph WNW1.6 kmh WNW 7.0 mph11.3 kmh 30.23 in1023.7 mb 0.00 in0.0 mm 0.00 in0.0 mm 0.09 in2.3 mm
04:06 PM 28.8°F-1.8°C 22.5°F-5.3°C 77% 1.0 mph WNW1.6 kmh WNW 5.0 mph8.0 kmh 30.24 in1024.0 mb 0.00 in0.0 mm 0.00 in0.0 mm 0.09 in2.3 mm
04:13 PM 28.6°F-1.9°C 22.3°F-5.4°C 77% 3.0 mph NNW4.8 kmh NNW 8.0 mph12.9 kmh 30.24 in1024.0 mb 0.00 in0.0 mm 0.00 in0.0 mm 0.09 in2.3 mm
04:20 PM 28.6°F-1.9°C 22.3°F-5.4°C 77% 3.0 mph N4.8 kmh N 9.0 mph14.5 kmh 30.25 in1024.4 mb 0.00 in0.0 mm 0.00 in0.0 mm 0.09 in2.3 mm
04:27 PM 28.4°F-2.0°C 22.1°F-5.5°C 77% 3.0 mph N4.8 kmh N 9.0 mph14.5 kmh 30.25 in1024.4 mb 0.00 in0.0 mm 0.00 in0.0 mm 0.09 in2.3 mm
04:34 PM 28.2°F-2.1°C 22.1°F-5.5°C 77% 3.0 mph N4.8 kmh N 8.0 mph12.9 kmh 30.25 in1024.4 mb 0.00 in0.0 mm 0.00 in0.0 mm 0.09 in2.3 mm
04:41 PM 28.2°F-2.1°C 21.9°F-5.6°C 77% 3.0 mph NW4.8 kmh NW 8.0 mph12.9 kmh 30.24 in1024.0 mb 0.00 in0.0 mm 0.00 in0.0 mm 0.09 in2.3 mm
04:49 PM 28.0°F-2.2°C 21.7°F-5.7°C 77% 1.0 mph WNW1.6 kmh WNW 9.0 mph14.5 kmh 30.25 in1024.4 mb 0.00 in0.0 mm 0.00 in0.0 mm 0.09 in2.3 mm
04:55 PM 28.0°F-2.2°C 21.7°F-5.7°C 77% 1.0 mph NW1.6 kmh NW 8.0 mph12.9 kmh 30.25 in1024.4 mb 0.00 in0.0 mm 0.00 in0.0 mm 0.09 in2.3 mm
05:02 PM 28.0°F-2.2°C 21.7°F-5.7°C 77% 1.0 mph N1.6 kmh N 12.0 mph19.3 kmh 30.25 in1024.4 mb 0.00 in0.0 mm 0.00 in0.0 mm 0.09 in2.3 mm
05:09 PM 27.9°F-2.3°C 21.6°F-5.8°C 77% 1.0 mph N1.6 kmh N 7.0 mph11.3 kmh 30.25 in1024.4 mb 0.00 in0.0 mm 0.00 in0.0 mm 0.09 in2.3 mm
05:16 PM 27.9°F-2.3°C 21.6°F-5.8°C 77% 3.0 mph N4.8 kmh N 12.0 mph19.3 kmh 30.25 in1024.4 mb 0.00 in0.0 mm 0.00 in0.0 mm 0.09 in2.3 mm
05:23 PM 27.7°F-2.4°C 21.4°F-5.9°C 77% 3.0 mph N4.8 kmh N 12.0 mph19.3 kmh 30.25 in1024.4 mb 0.00 in0.0 mm 0.00 in0.0 mm 0.09 in2.3 mm
05:30 PM 27.7°F-2.4°C 21.4°F-5.9°C 77% 3.0 mph N4.8 kmh N 12.0 mph19.3 kmh 30.26 in1024.7 mb 0.00 in0.0 mm 0.00 in0.0 mm 0.09 in2.3 mm
05:37 PM 27.3°F-2.6°C 21.2°F-6.0°C 77% 3.0 mph NNE4.8 kmh NNE 9.0 mph14.5 kmh 30.25 in1024.4 mb 0.00 in0.0 mm 0.00 in0.0 mm 0.09 in2.3 mm
05:44 PM 27.3°F-2.6°C 21.0°F-6.1°C 77% 3.0 mph N4.8 kmh N 9.0 mph14.5 kmh 30.25 in1024.4 mb 0.00 in0.0 mm 0.00 in0.0 mm 0.09 in2.3 mm
05:52 PM 27.1°F-2.7°C 20.5°F-6.4°C 76% 1.0 mph N1.6 kmh N 9.0 mph14.5 kmh 30.25 in1024.4 mb 0.00 in0.0 mm 0.00 in0.0 mm 0.09 in2.3 mm
05:58 PM 27.0°F-2.8°C 20.5°F-6.4°C 76% 3.0 mph N4.8 kmh N 9.0 mph14.5 kmh 30.26 in1024.7 mb 0.00 in0.0 mm 0.00 in0.0 mm 0.09 in2.3 mm
06:05 PM 27.0°F-2.8°C 20.3°F-6.5°C 76% 3.0 mph N4.8 kmh N 9.0 mph14.5 kmh 30.26 in1024.7 mb 0.00 in0.0 mm 0.00 in0.0 mm 0.09 in2.3 mm
06:12 PM 27.0°F-2.8°C 20.3°F-6.5°C 76% 1.0 mph NNW1.6 kmh NNW 7.0 mph11.3 kmh 30.26 in1024.7 mb 0.00 in0.0 mm 0.00 in0.0 mm 0.09 in2.3 mm
06:19 PM 26.8°F-2.9°C 20.3°F-6.5°C 76% 1.0 mph NNW1.6 kmh NNW 4.0 mph6.4 kmh 30.27 in1025.1 mb 0.00 in0.0 mm 0.00 in0.0 mm 0.09 in2.3 mm
06:26 PM 26.6°F-3.0°C 19.8°F-6.8°C 75% 1.0 mph NNW1.6 kmh NNW 7.0 mph11.3 kmh 30.27 in1025.1 mb 0.00 in0.0 mm 0.00 in0.0 mm 0.09 in2.3 mm
06:33 PM 26.4°F-3.1°C 19.6°F-6.9°C 75% 1.0 mph N1.6 kmh N 8.0 mph12.9 kmh 30.27 in1025.1 mb 0.00 in0.0 mm 0.00 in0.0 mm 0.09 in2.3 mm
06:40 PM 26.2°F-3.2°C 19.4°F-7.0°C 75% 1.0 mph NNE1.6 kmh NNE 8.0 mph12.9 kmh 30.27 in1025.1 mb 0.00 in0.0 mm 0.00 in0.0 mm 0.09 in2.3 mm
06:47 PM 26.2°F-3.2°C 19.6°F-6.9°C 76% Calm Calm 4.0 mph6.4 kmh 30.27 in1025.1 mb 0.00 in0.0 mm 0.00 in0.0 mm 0.09 in2.3 mm
06:55 PM 26.1°F-3.3°C 19.6°F-6.9°C 76% 1.0 mph N1.6 kmh N 5.0 mph8.0 kmh 30.27 in1025.1 mb 0.00 in0.0 mm 0.00 in0.0 mm 0.09 in2.3 mm
07:01 PM 26.1°F-3.3°C 19.6°F-6.9°C 76% 1.0 mph N1.6 kmh N 7.0 mph11.3 kmh 30.27 in1025.1 mb 0.00 in0.0 mm 0.00 in0.0 mm 0.09 in2.3 mm
07:08 PM 26.1°F-3.3°C 19.2°F-7.1°C 75% 1.0 mph NW1.6 kmh NW 5.0 mph8.0 kmh 30.27 in1025.1 mb 0.00 in0.0 mm 0.00 in0.0 mm 0.09 in2.3 mm
07:15 PM 25.9°F-3.4°C 19.0°F-7.2°C 75% 1.0 mph NW1.6 kmh NW 5.0 mph8.0 kmh 30.28 in1025.4 mb 0.00 in0.0 mm 0.00 in0.0 mm 0.09 in2.3 mm
07:22 PM 25.7°F-3.5°C 18.9°F-7.3°C 75% 1.0 mph WNW1.6 kmh WNW 5.0 mph8.0 kmh 30.28 in1025.4 mb 0.00 in0.0 mm 0.00 in0.0 mm 0.09 in2.3 mm
07:29 PM 25.5°F-3.6°C 18.9°F-7.3°C 75% Calm Calm 4.0 mph6.4 kmh 30.28 in1025.4 mb 0.00 in0.0 mm 0.00 in0.0 mm 0.09 in2.3 mm
07:36 PM 25.5°F-3.6°C 18.7°F-7.4°C 75% 1.0 mph WNW1.6 kmh WNW 5.0 mph8.0 kmh 30.28 in1025.4 mb 0.00 in0.0 mm 0.00 in0.0 mm 0.09 in2.3 mm
07:43 PM 25.3°F-3.7°C 18.5°F-7.5°C 75% 3.0 mph WNW4.8 kmh WNW 5.0 mph8.0 kmh 30.28 in1025.4 mb 0.00 in0.0 mm 0.00 in0.0 mm 0.09 in2.3 mm
07:50 PM 25.2°F-3.8°C 18.3°F-7.6°C 75% 1.0 mph WNW1.6 kmh WNW 4.0 mph6.4 kmh 30.29 in1025.7 mb 0.00 in0.0 mm 0.00 in0.0 mm 0.09 in2.3 mm
07:58 PM 25.2°F-3.8°C 18.3°F-7.6°C 75% 1.0 mph WNW1.6 kmh WNW 4.0 mph6.4 kmh 30.29 in1025.7 mb 0.00 in0.0 mm 0.00 in0.0 mm 0.09 in2.3 mm
08:04 PM 25.2°F-3.8°C 18.3°F-7.6°C 75% 1.0 mph NW1.6 kmh NW 5.0 mph8.0 kmh 30.29 in1025.7 mb 0.00 in0.0 mm 0.00 in0.0 mm 0.09 in2.3 mm
08:11 PM 25.0°F-3.9°C 18.1°F-7.7°C 75% Calm Calm 3.0 mph4.8 kmh 30.29 in1025.7 mb 0.00 in0.0 mm 0.00 in0.0 mm 0.09 in2.3 mm
08:18 PM 25.0°F-3.9°C 18.1°F-7.7°C 75% 1.0 mph NW1.6 kmh NW 4.0 mph6.4 kmh 30.29 in1025.7 mb 0.00 in0.0 mm 0.00 in0.0 mm 0.09 in2.3 mm
08:25 PM 24.8°F-4.0°C 18.0°F-7.8°C 75% Calm Calm 4.0 mph6.4 kmh 30.29 in1025.7 mb 0.00 in0.0 mm 0.00 in0.0 mm 0.09 in2.3 mm
08:32 PM 24.6°F-4.1°C 18.0°F-7.8°C 75% Calm Calm 4.0 mph6.4 kmh 30.29 in1025.7 mb 0.00 in0.0 mm 0.00 in0.0 mm 0.09 in2.3 mm
08:39 PM 24.6°F-4.1°C 18.1°F-7.7°C 76% Calm Calm 3.0 mph4.8 kmh 30.29 in1025.7 mb 0.00 in0.0 mm 0.00 in0.0 mm 0.09 in2.3 mm
08:46 PM 24.6°F-4.1°C 18.1°F-7.7°C 76% 1.0 mph NNW1.6 kmh NNW 4.0 mph6.4 kmh 30.29 in1025.7 mb 0.00 in0.0 mm 0.00 in0.0 mm 0.09 in2.3 mm
08:53 PM 24.4°F-4.2°C 17.8°F-7.9°C 75% Calm Calm 3.0 mph4.8 kmh 30.29 in1025.7 mb 0.00 in0.0 mm 0.00 in0.0 mm 0.09 in2.3 mm
09:01 PM 24.4°F-4.2°C 17.6°F-8.0°C 75% 1.0 mph NW1.6 kmh NW 5.0 mph8.0 kmh 30.29 in1025.7 mb 0.00 in0.0 mm 0.00 in0.0 mm 0.09 in2.3 mm
09:07 PM 24.4°F-4.2°C 17.6°F-8.0°C 75% 1.0 mph NW1.6 kmh NW 5.0 mph8.0 kmh 30.29 in1025.7 mb 0.00 in0.0 mm 0.00 in0.0 mm 0.09 in2.3 mm
09:14 PM 24.3°F-4.3°C 17.6°F-8.0°C 75% 1.0 mph NW1.6 kmh NW 5.0 mph8.0 kmh 30.29 in1025.7 mb 0.00 in0.0 mm 0.00 in0.0 mm 0.09 in2.3 mm
09:21 PM 24.3°F-4.3°C 17.6°F-8.0°C 75% 3.0 mph WNW4.8 kmh WNW 7.0 mph11.3 kmh 30.29 in1025.7 mb 0.00 in0.0 mm 0.00 in0.0 mm 0.09 in2.3 mm
09:28 PM 24.3°F-4.3°C 17.4°F-8.1°C 75% 1.0 mph WNW1.6 kmh WNW 5.0 mph8.0 kmh 30.29 in1025.7 mb 0.00 in0.0 mm 0.00 in0.0 mm 0.09 in2.3 mm
09:35 PM 24.1°F-4.4°C 17.6°F-8.0°C 76% Calm Calm 3.0 mph4.8 kmh 30.29 in1025.7 mb 0.00 in0.0 mm 0.00 in0.0 mm 0.09 in2.3 mm
09:42 PM 24.1°F-4.4°C 17.6°F-8.0°C 76% Calm Calm 4.0 mph6.4 kmh 30.28 in1025.4 mb 0.00 in0.0 mm 0.00 in0.0 mm 0.09 in2.3 mm
09:49 PM 23.9°F-4.5°C 17.4°F-8.1°C 76% 1.0 mph NW1.6 kmh NW 5.0 mph8.0 kmh 30.29 in1025.7 mb 0.00 in0.0 mm 0.00 in0.0 mm 0.09 in2.3 mm
09:56 PM 23.9°F-4.5°C 17.4°F-8.1°C 76% Calm Calm 3.0 mph4.8 kmh 30.28 in1025.4 mb 0.00 in0.0 mm 0.00 in0.0 mm 0.09 in2.3 mm
10:04 PM 23.9°F-4.5°C 17.4°F-8.1°C 76% 1.0 mph N1.6 kmh N 5.0 mph8.0 kmh 30.28 in1025.4 mb 0.00 in0.0 mm 0.00 in0.0 mm 0.09 in2.3 mm
10:10 PM 23.7°F-4.6°C 17.4°F-8.1°C 76% 1.0 mph NW1.6 kmh NW 5.0 mph8.0 kmh 30.28 in1025.4 mb 0.00 in0.0 mm 0.00 in0.0 mm 0.09 in2.3 mm
10:17 PM 23.7°F-4.6°C 17.4°F-8.1°C 76% Calm Calm 3.0 mph4.8 kmh 30.28 in1025.4 mb 0.00 in0.0 mm 0.00 in0.0 mm 0.09 in2.3 mm
10:24 PM 23.7°F-4.6°C 17.4°F-8.1°C 76% 1.0 mph NW1.6 kmh NW 5.0 mph8.0 kmh 30.28 in1025.4 mb 0.00 in0.0 mm 0.00 in0.0 mm 0.09 in2.3 mm
10:31 PM 23.9°F-4.5°C 17.4°F-8.1°C 76% Calm Calm 4.0 mph6.4 kmh 30.28 in1025.4 mb 0.00 in0.0 mm 0.00 in0.0 mm 0.09 in2.3 mm
10:38 PM 23.7°F-4.6°C 17.1°F-8.3°C 75% 1.0 mph NW1.6 kmh NW 7.0 mph11.3 kmh 30.28 in1025.4 mb 0.00 in0.0 mm 0.00 in0.0 mm 0.09 in2.3 mm
10:45 PM 23.7°F-4.6°C 17.4°F-8.1°C 76% 1.0 mph WNW1.6 kmh WNW 7.0 mph11.3 kmh 30.29 in1025.7 mb 0.00 in0.0 mm 0.00 in0.0 mm 0.09 in2.3 mm
10:52 PM 23.7°F-4.6°C 17.4°F-8.1°C 76% 1.0 mph N1.6 kmh N 4.0 mph6.4 kmh 30.28 in1025.4 mb 0.00 in0.0 mm 0.00 in0.0 mm 0.09 in2.3 mm
10:59 PM 23.9°F-4.5°C 17.4°F-8.1°C 76% 1.0 mph N1.6 kmh N 4.0 mph6.4 kmh 30.28 in1025.4 mb 0.00 in0.0 mm 0.00 in0.0 mm 0.09 in2.3 mm
11:07 PM 23.7°F-4.6°C 17.4°F-8.1°C 76% 1.0 mph N1.6 kmh N 9.0 mph14.5 kmh 30.27 in1025.1 mb 0.00 in0.0 mm 0.00 in0.0 mm 0.09 in2.3 mm
11:13 PM 23.7°F-4.6°C 17.4°F-8.1°C 76% 1.0 mph NNW1.6 kmh NNW 9.0 mph14.5 kmh 30.27 in1025.1 mb 0.00 in0.0 mm 0.00 in0.0 mm 0.09 in2.3 mm
11:20 PM 23.7°F-4.6°C 17.4°F-8.1°C 76% Calm Calm 3.0 mph4.8 kmh 30.28 in1025.4 mb 0.00 in0.0 mm 0.00 in0.0 mm 0.09 in2.3 mm
11:27 PM 23.7°F-4.6°C 17.2°F-8.2°C 76% 1.0 mph NW1.6 kmh NW 3.0 mph4.8 kmh 30.27 in1025.1 mb 0.00 in0.0 mm 0.00 in0.0 mm 0.09 in2.3 mm
11:34 PM 23.5°F-4.7°C 17.1°F-8.3°C 76% 1.0 mph N1.6 kmh N 5.0 mph8.0 kmh 30.27 in1025.1 mb 0.00 in0.0 mm 0.00 in0.0 mm 0.09 in2.3 mm
11:41 PM 23.5°F-4.7°C 17.1°F-8.3°C 76% 1.0 mph NNE1.6 kmh NNE 5.0 mph8.0 kmh 30.28 in1025.4 mb 0.00 in0.0 mm 0.00 in0.0 mm 0.09 in2.3 mm
11:48 PM 23.5°F-4.7°C 17.1°F-8.3°C 76% Calm Calm 4.0 mph6.4 kmh 30.28 in1025.4 mb 0.00 in0.0 mm 0.00 in0.0 mm 0.09 in2.3 mm
11:55 PM 23.4°F-4.8°C 16.9°F-8.4°C 76% Calm Calm 3.0 mph4.8 kmh 30.28 in1025.4 mb 0.00 in0.0 mm 0.00 in0.0 mm 0.09 in2.3 mm